sensor_id;sensor_type;location;lat;lon;timestamp;temperature;humidity
29551;DHT22;16488;52.396;10.696;2023-01-10T00:02:12;6.60;99.90
29551;DHT22;16488;52.396;10.696;2023-01-10T00:04:37;6.60;99.90
29551;DHT22;16488;52.396;10.696;2023-01-10T00:07:03;6.50;99.90
29551;DHT22;16488;52.396;10.696;2023-01-10T00:09:29;6.50;99.90
29551;DHT22;16488;52.396;10.696;2023-01-10T00:11:54;6.50;99.90
29551;DHT22;16488;52.396;10.696;2023-01-10T00:14:38;6.50;99.90
29551;DHT22;16488;52.396;10.696;2023-01-10T00:17:04;6.50;99.90
29551;DHT22;16488;52.396;10.696;2023-01-10T00:19:30;6.50;99.90
29551;DHT22;16488;52.396;10.696;2023-01-10T00:21:56;6.50;99.90
29551;DHT22;16488;52.396;10.696;2023-01-10T00:24:31;6.50;99.90
29551;DHT22;16488;52.396;10.696;2023-01-10T00:26:57;6.50;99.90
29551;DHT22;16488;52.396;10.696;2023-01-10T00:29:28;6.50;99.90
29551;DHT22;16488;52.396;10.696;2023-01-10T00:31:55;6.50;99.90
29551;DHT22;16488;52.396;10.696;2023-01-10T00:34:22;6.50;99.90
29551;DHT22;16488;52.396;10.696;2023-01-10T00:36:47;6.50;99.90
29551;DHT22;16488;52.396;10.696;2023-01-10T00:39:14;6.50;99.90
29551;DHT22;16488;52.396;10.696;2023-01-10T00:41:40;6.50;99.90
29551;DHT22;16488;52.396;10.696;2023-01-10T00:44:24;6.50;99.90
29551;DHT22;16488;52.396;10.696;2023-01-10T00:46:51;6.40;99.90
29551;DHT22;16488;52.396;10.696;2023-01-10T00:49:16;6.50;99.90
29551;DHT22;16488;52.396;10.696;2023-01-10T00:51:43;6.50;99.90
29551;DHT22;16488;52.396;10.696;2023-01-10T00:54:10;6.50;99.90
29551;DHT22;16488;52.396;10.696;2023-01-10T00:56:36;6.40;99.90
29551;DHT22;16488;52.396;10.696;2023-01-10T00:59:02;6.50;99.90
29551;DHT22;16488;52.396;10.696;2023-01-10T01:01:28;6.50;99.90
29551;DHT22;16488;52.396;10.696;2023-01-10T01:03:53;6.50;99.90
29551;DHT22;16488;52.396;10.696;2023-01-10T01:06:19;6.50;99.90
29551;DHT22;16488;52.396;10.696;2023-01-10T01:08:45;6.50;99.90
29551;DHT22;16488;52.396;10.696;2023-01-10T01:11:10;6.50;99.90
29551;DHT22;16488;52.396;10.696;2023-01-10T01:13:36;6.50;99.90
29551;DHT22;16488;52.396;10.696;2023-01-10T01:16:02;6.50;99.90
29551;DHT22;16488;52.396;10.696;2023-01-10T01:18:27;6.50;99.90
29551;DHT22;16488;52.396;10.696;2023-01-10T01:20:55;6.40;99.90
29551;DHT22;16488;52.396;10.696;2023-01-10T01:23:22;6.50;99.90
29551;DHT22;16488;52.396;10.696;2023-01-10T01:25:52;6.50;99.90
29551;DHT22;16488;52.396;10.696;2023-01-10T01:28:18;6.50;99.90
29551;DHT22;16488;52.396;10.696;2023-01-10T01:30:44;6.40;99.90
29551;DHT22;16488;52.396;10.696;2023-01-10T01:33:10;6.40;99.90
29551;DHT22;16488;52.396;10.696;2023-01-10T01:35:35;6.40;99.90
29551;DHT22;16488;52.396;10.696;2023-01-10T01:38:02;6.40;99.90
29551;DHT22;16488;52.396;10.696;2023-01-10T01:40:28;6.40;99.90
29551;DHT22;16488;52.396;10.696;2023-01-10T01:42:53;6.40;99.90
29551;DHT22;16488;52.396;10.696;2023-01-10T01:48:07;6.50;99.90
29551;DHT22;16488;52.396;10.696;2023-01-10T01:50:47;6.40;99.90
29551;DHT22;16488;52.396;10.696;2023-01-10T01:53:28;6.50;99.90
29551;DHT22;16488;52.396;10.696;2023-01-10T01:55:59;6.50;99.90
29551;DHT22;16488;52.396;10.696;2023-01-10T01:58:33;6.50;99.90
29551;DHT22;16488;52.396;10.696;2023-01-10T02:01:01;6.50;99.90
29551;DHT22;16488;52.396;10.696;2023-01-10T02:03:28;6.50;99.90
29551;DHT22;16488;52.396;10.696;2023-01-10T02:05:54;6.50;99.90
29551;DHT22;16488;52.396;10.696;2023-01-10T02:08:20;6.50;99.90
29551;DHT22;16488;52.396;10.696;2023-01-10T02:11:27;6.50;99.90
29551;DHT22;16488;52.396;10.696;2023-01-10T02:13:46;6.40;99.90
29551;DHT22;16488;52.396;10.696;2023-01-10T02:16:13;6.40;99.90
29551;DHT22;16488;52.396;10.696;2023-01-10T02:18:39;6.40;99.90
29551;DHT22;16488;52.396;10.696;2023-01-10T02:21:27;6.50;99.90
29551;DHT22;16488;52.396;10.696;2023-01-10T02:24:34;6.50;99.90
29551;DHT22;16488;52.396;10.696;2023-01-10T02:27:20;6.50;99.90
29551;DHT22;16488;52.396;10.696;2023-01-10T02:41:05;6.50;99.90
29551;DHT22;16488;52.396;10.696;2023-01-10T02:43:49;6.40;99.90
29551;DHT22;16488;52.396;10.696;2023-01-10T02:46:26;6.40;99.90
29551;DHT22;16488;52.396;10.696;2023-01-10T02:48:54;6.40;99.90
29551;DHT22;16488;52.396;10.696;2023-01-10T02:51:22;6.50;99.90
29551;DHT22;16488;52.396;10.696;2023-01-10T02:56:37;6.40;99.90
29551;DHT22;16488;52.396;10.696;2023-01-10T03:04:50;6.40;99.90
29551;DHT22;16488;52.396;10.696;2023-01-10T03:07:28;6.40;99.90
29551;DHT22;16488;52.396;10.696;2023-01-10T03:15:10;6.40;99.90
29551;DHT22;16488;52.396;10.696;2023-01-10T03:17:38;6.40;99.90
29551;DHT22;16488;52.396;10.696;2023-01-10T03:20:05;6.40;99.90
29551;DHT22;16488;52.396;10.696;2023-01-10T03:22:32;6.40;99.90
29551;DHT22;16488;52.396;10.696;2023-01-10T03:25:02;6.40;99.90
29551;DHT22;16488;52.396;10.696;2023-01-10T03:32:48;6.40;99.90
29551;DHT22;16488;52.396;10.696;2023-01-10T03:35:15;6.50;99.90
29551;DHT22;16488;52.396;10.696;2023-01-10T03:37:55;6.40;99.90
29551;DHT22;16488;52.396;10.696;2023-01-10T03:43:07;6.40;99.90
29551;DHT22;16488;52.396;10.696;2023-01-10T03:45:58;6.40;99.90
29551;DHT22;16488;52.396;10.696;2023-01-10T03:48:26;6.40;99.90
29551;DHT22;16488;52.396;10.696;2023-01-10T03:50:55;6.40;99.90
29551;DHT22;16488;52.396;10.696;2023-01-10T03:53:20;6.40;99.90
29551;DHT22;16488;52.396;10.696;2023-01-10T03:55:46;6.40;99.90
29551;DHT22;16488;52.396;10.696;2023-01-10T03:58:13;6.40;99.90
29551;DHT22;16488;52.396;10.696;2023-01-10T04:00:38;6.40;99.90
29551;DHT22;16488;52.396;10.696;2023-01-10T04:03:06;6.40;99.90
29551;DHT22;16488;52.396;10.696;2023-01-10T04:05:34;6.40;99.90
29551;DHT22;16488;52.396;10.696;2023-01-10T04:07:59;6.40;99.90
29551;DHT22;16488;52.396;10.696;2023-01-10T04:10:25;6.40;99.90
29551;DHT22;16488;52.396;10.696;2023-01-10T04:12:51;6.40;99.90
29551;DHT22;16488;52.396;10.696;2023-01-10T04:15:17;6.40;99.90
29551;DHT22;16488;52.396;10.696;2023-01-10T04:17:43;6.30;99.90
29551;DHT22;16488;52.396;10.696;2023-01-10T04:20:10;6.30;99.90
29551;DHT22;16488;52.396;10.696;2023-01-10T04:22:36;6.30;99.90
29551;DHT22;16488;52.396;10.696;2023-01-10T04:25:01;6.30;99.90
29551;DHT22;16488;52.396;10.696;2023-01-10T04:27:27;6.30;99.90
29551;DHT22;16488;52.396;10.696;2023-01-10T04:29:52;6.30;99.90
29551;DHT22;16488;52.396;10.696;2023-01-10T04:32:18;6.30;99.90
29551;DHT22;16488;52.396;10.696;2023-01-10T04:34:43;6.30;99.90
29551;DHT22;16488;52.396;10.696;2023-01-10T04:37:09;6.30;99.90
29551;DHT22;16488;52.396;10.696;2023-01-10T04:39:35;6.30;99.90
29551;DHT22;16488;52.396;10.696;2023-01-10T04:42:00;6.30;99.90
29551;DHT22;16488;52.396;10.696;2023-01-10T04:44:26;6.30;99.90
29551;DHT22;16488;52.396;10.696;2023-01-10T04:46:51;6.30;99.90
29551;DHT22;16488;52.396;10.696;2023-01-10T04:49:17;6.30;99.90
29551;DHT22;16488;52.396;10.696;2023-01-10T04:51:42;6.30;99.90
29551;DHT22;16488;52.396;10.696;2023-01-10T04:54:08;6.30;99.90
29551;DHT22;16488;52.396;10.696;2023-01-10T04:56:34;6.30;99.90
29551;DHT22;16488;52.396;10.696;2023-01-10T04:58:59;6.30;99.90
29551;DHT22;16488;52.396;10.696;2023-01-10T05:01:25;6.30;99.90
29551;DHT22;16488;52.396;10.696;2023-01-10T05:03:53;6.30;99.90
29551;DHT22;16488;52.396;10.696;2023-01-10T05:06:20;6.30;99.90
29551;DHT22;16488;52.396;10.696;2023-01-10T05:08:46;6.30;99.90
29551;DHT22;16488;52.396;10.696;2023-01-10T05:11:12;6.30;99.90
29551;DHT22;16488;52.396;10.696;2023-01-10T05:13:38;6.30;99.90
29551;DHT22;16488;52.396;10.696;2023-01-10T05:16:04;6.30;99.90
29551;DHT22;16488;52.396;10.696;2023-01-10T05:18:30;6.40;99.90
29551;DHT22;16488;52.396;10.696;2023-01-10T05:21:00;6.40;99.90
29551;DHT22;16488;52.396;10.696;2023-01-10T05:23:27;6.40;99.90
29551;DHT22;16488;52.396;10.696;2023-01-10T05:25:53;6.40;99.90
29551;DHT22;16488;52.396;10.696;2023-01-10T05:28:18;6.40;99.90
29551;DHT22;16488;52.396;10.696;2023-01-10T05:30:44;6.40;99.90
29551;DHT22;16488;52.396;10.696;2023-01-10T05:33:10;6.40;99.90
29551;DHT22;16488;52.396;10.696;2023-01-10T05:35:35;6.30;99.90
29551;DHT22;16488;52.396;10.696;2023-01-10T05:38:01;6.40;99.90
29551;DHT22;16488;52.396;10.696;2023-01-10T05:40:26;6.30;99.90
29551;DHT22;16488;52.396;10.696;2023-01-10T05:42:52;6.30;99.90
29551;DHT22;16488;52.396;10.696;2023-01-10T05:45:18;6.30;99.90
29551;DHT22;16488;52.396;10.696;2023-01-10T05:47:43;6.30;99.90
29551;DHT22;16488;52.396;10.696;2023-01-10T05:50:10;6.30;99.90
29551;DHT22;16488;52.396;10.696;2023-01-10T05:52:35;6.30;99.90
29551;DHT22;16488;52.396;10.696;2023-01-10T05:55:01;6.30;99.90
29551;DHT22;16488;52.396;10.696;2023-01-10T05:57:26;6.30;99.90
29551;DHT22;16488;52.396;10.696;2023-01-10T05:59:52;6.30;99.90
29551;DHT22;16488;52.396;10.696;2023-01-10T06:02:18;6.30;99.90
29551;DHT22;16488;52.396;10.696;2023-01-10T06:04:43;6.30;99.90
29551;DHT22;16488;52.396;10.696;2023-01-10T06:07:09;6.20;99.90
29551;DHT22;16488;52.396;10.696;2023-01-10T06:09:35;6.20;99.90
29551;DHT22;16488;52.396;10.696;2023-01-10T06:12:00;6.20;99.90
29551;DHT22;16488;52.396;10.696;2023-01-10T06:14:26;6.30;99.90
29551;DHT22;16488;52.396;10.696;2023-01-10T06:16:52;6.30;99.90
29551;DHT22;16488;52.396;10.696;2023-01-10T06:19:17;6.30;99.90
29551;DHT22;16488;52.396;10.696;2023-01-10T06:21:43;6.30;99.90
29551;DHT22;16488;52.396;10.696;2023-01-10T06:24:09;6.30;99.90
29551;DHT22;16488;52.396;10.696;2023-01-10T06:26:34;6.20;99.90
29551;DHT22;16488;52.396;10.696;2023-01-10T06:29:00;6.20;99.90
29551;DHT22;16488;52.396;10.696;2023-01-10T06:31:26;6.10;99.90
29551;DHT22;16488;52.396;10.696;2023-01-10T06:33:51;6.10;99.90
29551;DHT22;16488;52.396;10.696;2023-01-10T06:36:17;6.00;99.90
29551;DHT22;16488;52.396;10.696;2023-01-10T06:38:43;5.90;99.90
29551;DHT22;16488;52.396;10.696;2023-01-10T06:41:09;5.90;99.90
29551;DHT22;16488;52.396;10.696;2023-01-10T06:43:42;5.90;99.90
29551;DHT22;16488;52.396;10.696;2023-01-10T06:46:10;5.80;99.90
29551;DHT22;16488;52.396;10.696;2023-01-10T06:48:36;5.70;99.90
29551;DHT22;16488;52.396;10.696;2023-01-10T06:51:03;5.70;99.90
29551;DHT22;16488;52.396;10.696;2023-01-10T06:53:29;5.60;99.90
29551;DHT22;16488;52.396;10.696;2023-01-10T06:55:55;5.60;99.90
29551;DHT22;16488;52.396;10.696;2023-01-10T06:58:22;5.60;99.90
29551;DHT22;16488;52.396;10.696;2023-01-10T07:00:48;5.60;99.90
29551;DHT22;16488;52.396;10.696;2023-01-10T07:03:13;5.50;99.90
29551;DHT22;16488;52.396;10.696;2023-01-10T07:05:39;5.50;99.90
29551;DHT22;16488;52.396;10.696;2023-01-10T07:08:04;5.50;99.90
29551;DHT22;16488;52.396;10.696;2023-01-10T07:10:30;5.50;99.90
29551;DHT22;16488;52.396;10.696;2023-01-10T07:12:56;5.50;99.90
29551;DHT22;16488;52.396;10.696;2023-01-10T07:15:23;5.50;99.90
29551;DHT22;16488;52.396;10.696;2023-01-10T07:17:49;5.50;99.90
29551;DHT22;16488;52.396;10.696;2023-01-10T07:20:15;5.60;99.90
29551;DHT22;16488;52.396;10.696;2023-01-10T07:22:41;5.60;99.90
29551;DHT22;16488;52.396;10.696;2023-01-10T07:25:06;5.60;99.90
29551;DHT22;16488;52.396;10.696;2023-01-10T07:27:32;5.70;99.90
29551;DHT22;16488;52.396;10.696;2023-01-10T07:29:58;5.80;99.90
29551;DHT22;16488;52.396;10.696;2023-01-10T07:32:25;5.80;99.90
29551;DHT22;16488;52.396;10.696;2023-01-10T07:34:51;5.80;99.90
29551;DHT22;16488;52.396;10.696;2023-01-10T07:37:16;5.80;99.90
29551;DHT22;16488;52.396;10.696;2023-01-10T07:39:42;5.90;99.90
29551;DHT22;16488;52.396;10.696;2023-01-10T07:42:11;5.90;99.90
29551;DHT22;16488;52.396;10.696;2023-01-10T07:44:36;5.90;99.90
29551;DHT22;16488;52.396;10.696;2023-01-10T07:47:02;5.90;99.90
29551;DHT22;16488;52.396;10.696;2023-01-10T07:49:28;5.90;99.90
29551;DHT22;16488;52.396;10.696;2023-01-10T07:51:53;6.00;99.90
29551;DHT22;16488;52.396;10.696;2023-01-10T07:54:19;6.00;99.90
29551;DHT22;16488;52.396;10.696;2023-01-10T07:56:45;6.00;99.90
29551;DHT22;16488;52.396;10.696;2023-01-10T07:59:15;6.00;99.90
29551;DHT22;16488;52.396;10.696;2023-01-10T08:01:41;6.00;99.90
29551;DHT22;16488;52.396;10.696;2023-01-10T08:04:08;6.00;99.90
29551;DHT22;16488;52.396;10.696;2023-01-10T08:06:33;6.00;99.90
29551;DHT22;16488;52.396;10.696;2023-01-10T08:08:59;6.00;99.90
29551;DHT22;16488;52.396;10.696;2023-01-10T08:11:25;6.00;99.90
29551;DHT22;16488;52.396;10.696;2023-01-10T08:13:51;6.00;99.90
29551;DHT22;16488;52.396;10.696;2023-01-10T08:16:18;6.00;99.90
29551;DHT22;16488;52.396;10.696;2023-01-10T08:18:45;6.00;99.90
29551;DHT22;16488;52.396;10.696;2023-01-10T08:21:10;5.90;99.90
29551;DHT22;16488;52.396;10.696;2023-01-10T08:23:36;5.90;99.90
29551;DHT22;16488;52.396;10.696;2023-01-10T08:26:02;5.90;99.90
29551;DHT22;16488;52.396;10.696;2023-01-10T08:28:28;6.00;99.90
29551;DHT22;16488;52.396;10.696;2023-01-10T08:30:53;6.00;99.90
29551;DHT22;16488;52.396;10.696;2023-01-10T08:33:21;6.00;99.90
29551;DHT22;16488;52.396;10.696;2023-01-10T08:35:48;6.10;99.90
29551;DHT22;16488;52.396;10.696;2023-01-10T08:38:14;6.10;99.90
29551;DHT22;16488;52.396;10.696;2023-01-10T08:40:39;6.10;99.90
29551;DHT22;16488;52.396;10.696;2023-01-10T08:43:08;6.10;99.90
29551;DHT22;16488;52.396;10.696;2023-01-10T08:45:34;6.10;99.90
29551;DHT22;16488;52.396;10.696;2023-01-10T08:48:00;6.10;99.90
29551;DHT22;16488;52.396;10.696;2023-01-10T08:50:26;6.10;99.90
29551;DHT22;16488;52.396;10.696;2023-01-10T08:52:52;6.10;99.90
29551;DHT22;16488;52.396;10.696;2023-01-10T08:55:18;6.10;99.90
29551;DHT22;16488;52.396;10.696;2023-01-10T08:57:43;6.10;99.90
29551;DHT22;16488;52.396;10.696;2023-01-10T09:00:10;6.20;99.90
29551;DHT22;16488;52.396;10.696;2023-01-10T09:02:38;6.20;99.90
29551;DHT22;16488;52.396;10.696;2023-01-10T09:05:04;6.20;99.90
29551;DHT22;16488;52.396;10.696;2023-01-10T09:07:29;6.30;99.90
29551;DHT22;16488;52.396;10.696;2023-01-10T09:09:55;6.30;99.90
29551;DHT22;16488;52.396;10.696;2023-01-10T09:12:20;6.30;99.90
29551;DHT22;16488;52.396;10.696;2023-01-10T09:15:05;6.40;99.90
29551;DHT22;16488;52.396;10.696;2023-01-10T09:17:31;6.40;99.90
29551;DHT22;16488;52.396;10.696;2023-01-10T09:19:56;6.40;99.90
29551;DHT22;16488;52.396;10.696;2023-01-10T09:22:22;6.40;99.90
29551;DHT22;16488;52.396;10.696;2023-01-10T09:24:48;6.40;99.90
29551;DHT22;16488;52.396;10.696;2023-01-10T09:27:14;6.40;99.90
29551;DHT22;16488;52.396;10.696;2023-01-10T09:29:40;6.40;99.90
29551;DHT22;16488;52.396;10.696;2023-01-10T09:32:06;6.50;99.90
29551;DHT22;16488;52.396;10.696;2023-01-10T09:34:31;6.50;99.90
29551;DHT22;16488;52.396;10.696;2023-01-10T09:36:57;6.60;99.90
29551;DHT22;16488;52.396;10.696;2023-01-10T09:39:23;6.80;99.90
29551;DHT22;16488;52.396;10.696;2023-01-10T09:42:13;6.80;99.90
29551;DHT22;16488;52.396;10.696;2023-01-10T09:45:05;6.90;99.90
29551;DHT22;16488;52.396;10.696;2023-01-10T09:47:49;7.00;99.90
29551;DHT22;16488;52.396;10.696;2023-01-10T09:50:41;7.10;99.90
29551;DHT22;16488;52.396;10.696;2023-01-10T09:53:19;7.10;99.90
29551;DHT22;16488;52.396;10.696;2023-01-10T09:55:52;7.10;99.90
29551;DHT22;16488;52.396;10.696;2023-01-10T09:58:19;7.10;99.90
29551;DHT22;16488;52.396;10.696;2023-01-10T10:00:56;7.10;99.90
29551;DHT22;16488;52.396;10.696;2023-01-10T10:03:45;7.00;99.90
29551;DHT22;16488;52.396;10.696;2023-01-10T10:06:13;7.00;99.90
29551;DHT22;16488;52.396;10.696;2023-01-10T10:08:41;7.00;99.90
29551;DHT22;16488;52.396;10.696;2023-01-10T10:14:14;7.00;99.90
29551;DHT22;16488;52.396;10.696;2023-01-10T10:20:13;7.00;99.90
29551;DHT22;16488;52.396;10.696;2023-01-10T10:26:00;7.10;99.90
29551;DHT22;16488;52.396;10.696;2023-01-10T10:34:06;7.10;99.90
29551;DHT22;16488;52.396;10.696;2023-01-10T10:36:45;7.20;99.90
29551;DHT22;16488;52.396;10.696;2023-01-10T10:39:16;7.20;99.90
29551;DHT22;16488;52.396;10.696;2023-01-10T10:41:45;7.20;99.90
29551;DHT22;16488;52.396;10.696;2023-01-10T10:46:46;7.20;99.90
29551;DHT22;16488;52.396;10.696;2023-01-10T10:52:29;7.30;99.90
29551;DHT22;16488;52.396;10.696;2023-01-10T10:54:57;7.30;99.90
29551;DHT22;16488;52.396;10.696;2023-01-10T10:57:26;7.30;99.90
29551;DHT22;16488;52.396;10.696;2023-01-10T10:59:53;7.30;99.90
29551;DHT22;16488;52.396;10.696;2023-01-10T11:02:28;7.30;99.90
29551;DHT22;16488;52.396;10.696;2023-01-10T11:04:59;7.30;99.90
29551;DHT22;16488;52.396;10.696;2023-01-10T11:07:28;7.30;99.90
29551;DHT22;16488;52.396;10.696;2023-01-10T11:09:57;7.40;99.90
29551;DHT22;16488;52.396;10.696;2023-01-10T11:12:37;7.40;99.90
29551;DHT22;16488;52.396;10.696;2023-01-10T11:15:06;7.30;99.90
29551;DHT22;16488;52.396;10.696;2023-01-10T11:17:32;7.30;99.90
29551;DHT22;16488;52.396;10.696;2023-01-10T11:20:12;7.30;99.90
29551;DHT22;16488;52.396;10.696;2023-01-10T11:22:52;7.30;99.90
29551;DHT22;16488;52.396;10.696;2023-01-10T11:25:20;7.40;99.90
29551;DHT22;16488;52.396;10.696;2023-01-10T11:27:51;7.40;99.90
29551;DHT22;16488;52.396;10.696;2023-01-10T11:30:20;7.50;99.90
29551;DHT22;16488;52.396;10.696;2023-01-10T11:32:55;7.60;99.90
29551;DHT22;16488;52.396;10.696;2023-01-10T11:35:33;7.60;99.90
29551;DHT22;16488;52.396;10.696;2023-01-10T11:40:58;7.60;99.90
29551;DHT22;16488;52.396;10.696;2023-01-10T11:43:42;7.70;99.90
29551;DHT22;16488;52.396;10.696;2023-01-10T11:46:23;7.70;99.90
29551;DHT22;16488;52.396;10.696;2023-01-10T11:49:04;7.60;99.90
29551;DHT22;16488;52.396;10.696;2023-01-10T11:51:39;7.70;99.90
29551;DHT22;16488;52.396;10.696;2023-01-10T11:56:40;7.80;99.90
29551;DHT22;16488;52.396;10.696;2023-01-10T11:59:17;7.70;99.90
29551;DHT22;16488;52.396;10.696;2023-01-10T12:02:19;7.60;99.90
29551;DHT22;16488;52.396;10.696;2023-01-10T12:04:48;7.60;99.90
29551;DHT22;16488;52.396;10.696;2023-01-10T12:07:14;7.60;99.90
29551;DHT22;16488;52.396;10.696;2023-01-10T12:09:59;7.60;99.90
29551;DHT22;16488;52.396;10.696;2023-01-10T12:12:26;7.60;99.90
29551;DHT22;16488;52.396;10.696;2023-01-10T12:14:55;7.60;99.90
29551;DHT22;16488;52.396;10.696;2023-01-10T12:17:32;7.60;99.90
29551;DHT22;16488;52.396;10.696;2023-01-10T12:20:02;7.60;99.90
29551;DHT22;16488;52.396;10.696;2023-01-10T12:22:29;7.70;99.90
29551;DHT22;16488;52.396;10.696;2023-01-10T12:24:58;7.80;99.90
29551;DHT22;16488;52.396;10.696;2023-01-10T12:27:25;7.90;99.90
29551;DHT22;16488;52.396;10.696;2023-01-10T12:30:00;8.10;99.90
29551;DHT22;16488;52.396;10.696;2023-01-10T12:32:37;8.20;99.90
29551;DHT22;16488;52.396;10.696;2023-01-10T12:35:19;8.20;99.90
29551;DHT22;16488;52.396;10.696;2023-01-10T12:37:57;8.30;99.90
29551;DHT22;16488;52.396;10.696;2023-01-10T12:41:04;8.50;99.90
29551;DHT22;16488;52.396;10.696;2023-01-10T12:43:40;9.10;99.90
29551;DHT22;16488;52.396;10.696;2023-01-10T12:46:34;9.10;99.90
29551;DHT22;16488;52.396;10.696;2023-01-10T12:49:32;9.10;99.90
29551;DHT22;16488;52.396;10.696;2023-01-10T12:52:06;9.20;99.90
29551;DHT22;16488;52.396;10.696;2023-01-10T12:54:34;8.80;99.90
29551;DHT22;16488;52.396;10.696;2023-01-10T12:57:05;8.70;99.90
29551;DHT22;16488;52.396;10.696;2023-01-10T12:59:41;8.30;99.90
29551;DHT22;16488;52.396;10.696;2023-01-10T13:02:16;8.10;99.90
29551;DHT22;16488;52.396;10.696;2023-01-10T13:04:44;8.10;99.90
29551;DHT22;16488;52.396;10.696;2023-01-10T13:07:14;8.00;99.90
29551;DHT22;16488;52.396;10.696;2023-01-10T13:09:41;7.90;99.90
29551;DHT22;16488;52.396;10.696;2023-01-10T13:12:21;7.80;99.90
29551;DHT22;16488;52.396;10.696;2023-01-10T13:14:53;7.70;99.90
29551;DHT22;16488;52.396;10.696;2023-01-10T13:17:24;7.70;99.90
29551;DHT22;16488;52.396;10.696;2023-01-10T13:22:56;7.70;99.90
29551;DHT22;16488;52.396;10.696;2023-01-10T13:25:29;7.70;99.90
29551;DHT22;16488;52.396;10.696;2023-01-10T13:28:04;7.80;99.90
29551;DHT22;16488;52.396;10.696;2023-01-10T13:30:35;7.80;99.90
29551;DHT22;16488;52.396;10.696;2023-01-10T13:33:05;7.80;99.90
29551;DHT22;16488;52.396;10.696;2023-01-10T13:35:39;7.80;99.90
29551;DHT22;16488;52.396;10.696;2023-01-10T13:38:14;7.80;99.90
29551;DHT22;16488;52.396;10.696;2023-01-10T13:40:40;7.80;99.90
29551;DHT22;16488;52.396;10.696;2023-01-10T13:51:29;7.80;99.90
29551;DHT22;16488;52.396;10.696;2023-01-10T13:54:23;7.80;99.90
29551;DHT22;16488;52.396;10.696;2023-01-10T13:56:49;7.80;99.90
29551;DHT22;16488;52.396;10.696;2023-01-10T14:02:22;7.80;99.90
29551;DHT22;16488;52.396;10.696;2023-01-10T14:05:05;7.80;99.90
29551;DHT22;16488;52.396;10.696;2023-01-10T14:07:51;7.80;99.90
29551;DHT22;16488;52.396;10.696;2023-01-10T14:10:24;7.80;99.90
29551;DHT22;16488;52.396;10.696;2023-01-10T14:15:27;7.80;99.90
29551;DHT22;16488;52.396;10.696;2023-01-10T14:18:00;7.70;99.90
29551;DHT22;16488;52.396;10.696;2023-01-10T14:20:27;7.70;99.90
29551;DHT22;16488;52.396;10.696;2023-01-10T14:23:04;7.70;99.90
29551;DHT22;16488;52.396;10.696;2023-01-10T14:25:33;7.60;99.90
29551;DHT22;16488;52.396;10.696;2023-01-10T14:28:00;7.70;99.90
29551;DHT22;16488;52.396;10.696;2023-01-10T14:30:32;7.70;99.90
29551;DHT22;16488;52.396;10.696;2023-01-10T14:33:11;7.70;99.90
29551;DHT22;16488;52.396;10.696;2023-01-10T14:35:43;7.60;99.90
29551;DHT22;16488;52.396;10.696;2023-01-10T14:38:25;7.60;99.90
29551;DHT22;16488;52.396;10.696;2023-01-10T14:40:56;7.60;99.90
29551;DHT22;16488;52.396;10.696;2023-01-10T14:43:27;7.60;99.90
29551;DHT22;16488;52.396;10.696;2023-01-10T14:46:05;7.60;99.90
29551;DHT22;16488;52.396;10.696;2023-01-10T14:48:34;7.60;99.90
29551;DHT22;16488;52.396;10.696;2023-01-10T14:53:36;7.50;99.90
29551;DHT22;16488;52.396;10.696;2023-01-10T14:56:02;7.50;99.90
29551;DHT22;16488;52.396;10.696;2023-01-10T14:58:28;7.50;99.90
29551;DHT22;16488;52.396;10.696;2023-01-10T15:00:54;7.50;99.90
29551;DHT22;16488;52.396;10.696;2023-01-10T15:03:21;7.50;99.90
29551;DHT22;16488;52.396;10.696;2023-01-10T15:05:53;7.50;99.90
29551;DHT22;16488;52.396;10.696;2023-01-10T15:08:28;7.50;99.90
29551;DHT22;16488;52.396;10.696;2023-01-10T15:11:01;7.40;99.90
29551;DHT22;16488;52.396;10.696;2023-01-10T15:13:29;7.40;99.90
29551;DHT22;16488;52.396;10.696;2023-01-10T15:15:55;7.40;99.90
29551;DHT22;16488;52.396;10.696;2023-01-10T15:18:37;7.40;99.90
29551;DHT22;16488;52.396;10.696;2023-01-10T15:21:04;7.40;99.90
29551;DHT22;16488;52.396;10.696;2023-01-10T15:23:35;7.30;99.90
29551;DHT22;16488;52.396;10.696;2023-01-10T15:26:47;7.30;99.90
29551;DHT22;16488;52.396;10.696;2023-01-10T15:29:01;7.20;99.90
29551;DHT22;16488;52.396;10.696;2023-01-10T15:31:28;7.20;99.90
29551;DHT22;16488;52.396;10.696;2023-01-10T15:33:54;7.20;99.90
29551;DHT22;16488;52.396;10.696;2023-01-10T15:36:22;7.20;99.90
29551;DHT22;16488;52.396;10.696;2023-01-10T15:38:49;7.20;99.90
29551;DHT22;16488;52.396;10.696;2023-01-10T15:41:19;7.20;99.90
29551;DHT22;16488;52.396;10.696;2023-01-10T15:43:46;7.20;99.90
29551;DHT22;16488;52.396;10.696;2023-01-10T15:46:21;7.10;99.90
29551;DHT22;16488;52.396;10.696;2023-01-10T15:49:00;7.10;99.90
29551;DHT22;16488;52.396;10.696;2023-01-10T15:51:31;7.10;99.90
29551;DHT22;16488;52.396;10.696;2023-01-10T15:56:51;7.00;99.90
29551;DHT22;16488;52.396;10.696;2023-01-10T15:59:30;7.00;99.90
29551;DHT22;16488;52.396;10.696;2023-01-10T16:04:34;6.90;99.90
29551;DHT22;16488;52.396;10.696;2023-01-10T16:07:11;6.90;99.90
29551;DHT22;16488;52.396;10.696;2023-01-10T16:09:39;6.80;99.90
29551;DHT22;16488;52.396;10.696;2023-01-10T16:12:05;6.80;99.90
29551;DHT22;16488;52.396;10.696;2023-01-10T16:15:17;6.80;99.90
29551;DHT22;16488;52.396;10.696;2023-01-10T16:17:44;6.80;99.90
29551;DHT22;16488;52.396;10.696;2023-01-10T16:20:29;6.70;99.90
29551;DHT22;16488;52.396;10.696;2023-01-10T16:22:55;6.70;99.90
29551;DHT22;16488;52.396;10.696;2023-01-10T16:25:26;6.70;99.90
29551;DHT22;16488;52.396;10.696;2023-01-10T16:27:52;6.60;99.90
29551;DHT22;16488;52.396;10.696;2023-01-10T16:30:21;6.60;99.90
29551;DHT22;16488;52.396;10.696;2023-01-10T16:32:48;6.60;99.90
29551;DHT22;16488;52.396;10.696;2023-01-10T16:35:14;6.60;99.90
29551;DHT22;16488;52.396;10.696;2023-01-10T16:37:41;6.60;99.90
29551;DHT22;16488;52.396;10.696;2023-01-10T16:40:22;6.60;99.90
29551;DHT22;16488;52.396;10.696;2023-01-10T16:42:49;6.50;99.90
29551;DHT22;16488;52.396;10.696;2023-01-10T16:45:34;6.50;99.90
29551;DHT22;16488;52.396;10.696;2023-01-10T16:48:00;6.50;99.90
29551;DHT22;16488;52.396;10.696;2023-01-10T16:50:26;6.40;99.90
29551;DHT22;16488;52.396;10.696;2023-01-10T16:52:52;6.40;99.90
29551;DHT22;16488;52.396;10.696;2023-01-10T16:55:20;6.40;99.90
29551;DHT22;16488;52.396;10.696;2023-01-10T16:57:48;6.40;99.90
29551;DHT22;16488;52.396;10.696;2023-01-10T17:00:16;6.40;99.90
29551;DHT22;16488;52.396;10.696;2023-01-10T17:02:42;6.30;99.90
29551;DHT22;16488;52.396;10.696;2023-01-10T17:05:08;6.30;99.90
29551;DHT22;16488;52.396;10.696;2023-01-10T17:07:34;6.30;99.90
29551;DHT22;16488;52.396;10.696;2023-01-10T17:10:00;6.30;99.90
29551;DHT22;16488;52.396;10.696;2023-01-10T17:12:31;6.30;99.90
29551;DHT22;16488;52.396;10.696;2023-01-10T17:14:59;6.20;99.90